sensor_id;sensor_type;location;lat;lon;timestamp;temperature;humidity
30594;DHT22;33199;47.590;8.300;2023-06-10T00:00:43;25.20;53.90
30594;DHT22;33199;47.590;8.300;2023-06-10T00:03:09;25.10;53.90
30594;DHT22;33199;47.590;8.300;2023-06-10T00:05:35;25.10;54.00
30594;DHT22;33199;47.590;8.300;2023-06-10T00:08:01;25.10;53.90
30594;DHT22;33199;47.590;8.300;2023-06-10T00:10:36;25.10;54.00
30594;DHT22;33199;47.590;8.300;2023-06-10T00:13:02;25.10;54.00
30594;DHT22;33199;47.590;8.300;2023-06-10T00:15:28;25.10;53.90
30594;DHT22;33199;47.590;8.300;2023-06-10T00:17:54;25.10;54.00
30594;DHT22;33199;47.590;8.300;2023-06-10T00:20:20;25.10;54.10
30594;DHT22;33199;47.590;8.300;2023-06-10T00:22:47;25.10;54.00
30594;DHT22;33199;47.590;8.300;2023-06-10T00:25:13;25.10;53.90
30594;DHT22;33199;47.590;8.300;2023-06-10T00:27:39;25.00;53.90
30594;DHT22;33199;47.590;8.300;2023-06-10T00:30:05;25.10;53.90
30594;DHT22;33199;47.590;8.300;2023-06-10T00:32:35;25.10;53.90
30594;DHT22;33199;47.590;8.300;2023-06-10T00:35:01;25.10;54.00
30594;DHT22;33199;47.590;8.300;2023-06-10T00:37:26;25.00;53.90
30594;DHT22;33199;47.590;8.300;2023-06-10T00:39:54;25.00;54.10
30594;DHT22;33199;47.590;8.300;2023-06-10T00:42:20;25.00;54.00
30594;DHT22;33199;47.590;8.300;2023-06-10T00:44:47;25.00;54.20
30594;DHT22;33199;47.590;8.300;2023-06-10T00:47:14;25.00;54.00
30594;DHT22;33199;47.590;8.300;2023-06-10T00:49:40;25.00;54.10
30594;DHT22;33199;47.590;8.300;2023-06-10T00:52:05;24.90;54.00
30594;DHT22;33199;47.590;8.300;2023-06-10T00:54:32;24.90;54.00
30594;DHT22;33199;47.590;8.300;2023-06-10T00:57:00;24.90;54.00
30594;DHT22;33199;47.590;8.300;2023-06-10T00:59:26;25.00;54.00
30594;DHT22;33199;47.590;8.300;2023-06-10T01:01:51;24.90;54.00
30594;DHT22;33199;47.590;8.300;2023-06-10T01:04:17;24.90;54.00
30594;DHT22;33199;47.590;8.300;2023-06-10T01:09:15;24.90;54.00
30594;DHT22;33199;47.590;8.300;2023-06-10T01:11:46;24.90;54.10
30594;DHT22;33199;47.590;8.300;2023-06-10T01:14:12;24.90;54.00
30594;DHT22;33199;47.590;8.300;2023-06-10T01:16:39;24.90;54.10
30594;DHT22;33199;47.590;8.300;2023-06-10T01:19:06;24.90;54.20
30594;DHT22;33199;47.590;8.300;2023-06-10T01:21:32;24.90;54.10
30594;DHT22;33199;47.590;8.300;2023-06-10T01:23:58;24.90;54.10
30594;DHT22;33199;47.590;8.300;2023-06-10T01:26:30;24.90;54.10
30594;DHT22;33199;47.590;8.300;2023-06-10T01:28:58;24.80;54.10
30594;DHT22;33199;47.590;8.300;2023-06-10T01:34:12;24.80;54.20
30594;DHT22;33199;47.590;8.300;2023-06-10T01:36:39;24.80;54.20
30594;DHT22;33199;47.590;8.300;2023-06-10T01:39:05;24.80;54.20
30594;DHT22;33199;47.590;8.300;2023-06-10T01:41:33;24.80;54.20
30594;DHT22;33199;47.590;8.300;2023-06-10T01:43:59;24.70;54.10
30594;DHT22;33199;47.590;8.300;2023-06-10T01:46:25;24.80;54.10
30594;DHT22;33199;47.590;8.300;2023-06-10T01:48:50;24.80;54.20
30594;DHT22;33199;47.590;8.300;2023-06-10T01:51:16;24.70;54.10
30594;DHT22;33199;47.590;8.300;2023-06-10T01:53:41;24.80;54.20
30594;DHT22;33199;47.590;8.300;2023-06-10T01:56:07;24.70;54.10
30594;DHT22;33199;47.590;8.300;2023-06-10T01:58:32;24.70;54.20
30594;DHT22;33199;47.590;8.300;2023-06-10T02:00:57;24.70;54.20
30594;DHT22;33199;47.590;8.300;2023-06-10T02:03:23;24.70;54.20
30594;DHT22;33199;47.590;8.300;2023-06-10T02:05:49;24.70;54.20
30594;DHT22;33199;47.590;8.300;2023-06-10T02:08:14;24.70;54.20
30594;DHT22;33199;47.590;8.300;2023-06-10T02:10:40;24.70;54.20
30594;DHT22;33199;47.590;8.300;2023-06-10T02:13:06;24.60;54.20
30594;DHT22;33199;47.590;8.300;2023-06-10T02:15:31;24.70;54.20
30594;DHT22;33199;47.590;8.300;2023-06-10T02:17:57;24.70;54.20
30594;DHT22;33199;47.590;8.300;2023-06-10T02:20:23;24.70;54.20
30594;DHT22;33199;47.590;8.300;2023-06-10T02:22:49;24.70;54.30
30594;DHT22;33199;47.590;8.300;2023-06-10T02:25:14;24.60;54.20
30594;DHT22;33199;47.590;8.300;2023-06-10T02:27:40;24.60;54.30
30594;DHT22;33199;47.590;8.300;2023-06-10T02:30:05;24.60;54.30
30594;DHT22;33199;47.590;8.300;2023-06-10T02:32:31;24.60;54.30
30594;DHT22;33199;47.590;8.300;2023-06-10T02:34:56;24.60;54.30
30594;DHT22;33199;47.590;8.300;2023-06-10T02:37:23;24.60;54.30
30594;DHT22;33199;47.590;8.300;2023-06-10T02:39:48;24.60;54.40
30594;DHT22;33199;47.590;8.300;2023-06-10T02:42:14;24.60;54.40
30594;DHT22;33199;47.590;8.300;2023-06-10T02:44:39;24.50;54.30
30594;DHT22;33199;47.590;8.300;2023-06-10T02:47:05;24.50;54.30
30594;DHT22;33199;47.590;8.300;2023-06-10T02:49:30;24.50;54.30
30594;DHT22;33199;47.590;8.300;2023-06-10T02:51:56;24.50;54.30
30594;DHT22;33199;47.590;8.300;2023-06-10T02:54:22;24.50;54.30
30594;DHT22;33199;47.590;8.300;2023-06-10T02:56:48;24.50;54.40
30594;DHT22;33199;47.590;8.300;2023-06-10T02:59:13;24.50;54.40
30594;DHT22;33199;47.590;8.300;2023-06-10T03:01:39;24.50;54.40
30594;DHT22;33199;47.590;8.300;2023-06-10T03:04:05;24.50;54.40
30594;DHT22;33199;47.590;8.300;2023-06-10T03:06:30;24.50;54.40
30594;DHT22;33199;47.590;8.300;2023-06-10T03:08:59;24.50;54.50
30594;DHT22;33199;47.590;8.300;2023-06-10T03:11:24;24.40;54.40
30594;DHT22;33199;47.590;8.300;2023-06-10T03:13:51;24.40;54.40
30594;DHT22;33199;47.590;8.300;2023-06-10T03:16:17;24.40;54.40
30594;DHT22;33199;47.590;8.300;2023-06-10T03:18:43;24.40;54.40
30594;DHT22;33199;47.590;8.300;2023-06-10T03:21:09;24.40;54.50
30594;DHT22;33199;47.590;8.300;2023-06-10T03:23:35;24.40;54.50
30594;DHT22;33199;47.590;8.300;2023-06-10T03:26:00;24.40;54.50
30594;DHT22;33199;47.590;8.300;2023-06-10T03:28:26;24.30;54.50
30594;DHT22;33199;47.590;8.300;2023-06-10T03:30:51;24.40;54.60
30594;DHT22;33199;47.590;8.300;2023-06-10T03:33:17;24.30;54.60
30594;DHT22;33199;47.590;8.300;2023-06-10T03:35:42;24.40;54.60
30594;DHT22;33199;47.590;8.300;2023-06-10T03:38:08;24.30;54.50
30594;DHT22;33199;47.590;8.300;2023-06-10T03:40:33;24.30;54.60
30594;DHT22;33199;47.590;8.300;2023-06-10T03:43:00;24.30;54.60
30594;DHT22;33199;47.590;8.300;2023-06-10T03:45:26;24.30;54.70
30594;DHT22;33199;47.590;8.300;2023-06-10T03:47:53;24.30;54.60
30594;DHT22;33199;47.590;8.300;2023-06-10T03:50:18;24.30;54.60
30594;DHT22;33199;47.590;8.300;2023-06-10T03:52:44;24.30;54.60
30594;DHT22;33199;47.590;8.300;2023-06-10T03:55:10;24.20;54.60
30594;DHT22;33199;47.590;8.300;2023-06-10T03:57:39;24.20;54.60
30594;DHT22;33199;47.590;8.300;2023-06-10T04:00:05;24.20;54.60
30594;DHT22;33199;47.590;8.300;2023-06-10T04:02:37;24.20;54.70
30594;DHT22;33199;47.590;8.300;2023-06-10T04:05:03;24.20;54.70
30594;DHT22;33199;47.590;8.300;2023-06-10T04:07:28;24.20;54.70
30594;DHT22;33199;47.590;8.300;2023-06-10T04:09:54;24.20;54.70
30594;DHT22;33199;47.590;8.300;2023-06-10T04:12:19;24.20;54.70
30594;DHT22;33199;47.590;8.300;2023-06-10T04:14:45;24.20;54.70
30594;DHT22;33199;47.590;8.300;2023-06-10T04:17:10;24.20;54.70
30594;DHT22;33199;47.590;8.300;2023-06-10T04:19:36;24.20;54.70
30594;DHT22;33199;47.590;8.300;2023-06-10T04:22:01;24.20;54.70
30594;DHT22;33199;47.590;8.300;2023-06-10T04:24:30;24.20;54.70
30594;DHT22;33199;47.590;8.300;2023-06-10T04:26:56;24.10;54.70
30594;DHT22;33199;47.590;8.300;2023-06-10T04:29:21;24.10;54.70
30594;DHT22;33199;47.590;8.300;2023-06-10T04:31:47;24.10;54.80
30594;DHT22;33199;47.590;8.300;2023-06-10T04:34:12;24.10;54.70
30594;DHT22;33199;47.590;8.300;2023-06-10T04:36:38;24.10;54.70
30594;DHT22;33199;47.590;8.300;2023-06-10T04:39:04;24.10;54.80
30594;DHT22;33199;47.590;8.300;2023-06-10T04:41:31;24.10;54.80
30594;DHT22;33199;47.590;8.300;2023-06-10T04:43:56;24.10;54.80
30594;DHT22;33199;47.590;8.300;2023-06-10T04:46:23;24.10;54.80
30594;DHT22;33199;47.590;8.300;2023-06-10T04:48:49;24.00;54.80
30594;DHT22;33199;47.590;8.300;2023-06-10T04:51:14;24.00;54.80
30594;DHT22;33199;47.590;8.300;2023-06-10T04:53:40;24.00;54.70
30594;DHT22;33199;47.590;8.300;2023-06-10T04:56:06;24.00;54.80
30594;DHT22;33199;47.590;8.300;2023-06-10T04:58:33;24.00;54.80
30594;DHT22;33199;47.590;8.300;2023-06-10T05:00:58;24.00;54.90
30594;DHT22;33199;47.590;8.300;2023-06-10T05:03:25;24.00;54.80
30594;DHT22;33199;47.590;8.300;2023-06-10T05:05:50;24.00;54.90
30594;DHT22;33199;47.590;8.300;2023-06-10T05:08:16;23.90;54.80
30594;DHT22;33199;47.590;8.300;2023-06-10T05:10:41;24.00;54.90
30594;DHT22;33199;47.590;8.300;2023-06-10T05:13:07;24.00;54.90
30594;DHT22;33199;47.590;8.300;2023-06-10T05:15:32;23.90;54.90
30594;DHT22;33199;47.590;8.300;2023-06-10T05:17:58;23.90;54.90
30594;DHT22;33199;47.590;8.300;2023-06-10T05:20:24;23.90;54.90
30594;DHT22;33199;47.590;8.300;2023-06-10T05:22:50;23.90;54.90
30594;DHT22;33199;47.590;8.300;2023-06-10T05:25:16;23.90;54.90
30594;DHT22;33199;47.590;8.300;2023-06-10T05:27:41;23.90;54.90
30594;DHT22;33199;47.590;8.300;2023-06-10T05:30:08;23.90;54.90
30594;DHT22;33199;47.590;8.300;2023-06-10T05:32:34;23.80;54.90
30594;DHT22;33199;47.590;8.300;2023-06-10T05:34:59;23.80;54.90
30594;DHT22;33199;47.590;8.300;2023-06-10T05:37:26;23.80;54.90
30594;DHT22;33199;47.590;8.300;2023-06-10T05:39:51;23.90;54.90
30594;DHT22;33199;47.590;8.300;2023-06-10T05:42:17;23.80;54.90
30594;DHT22;33199;47.590;8.300;2023-06-10T05:44:43;23.80;54.90
30594;DHT22;33199;47.590;8.300;2023-06-10T05:47:08;23.80;54.90
30594;DHT22;33199;47.590;8.300;2023-06-10T05:49:34;23.80;54.90
30594;DHT22;33199;47.590;8.300;2023-06-10T05:51:59;23.80;55.00
30594;DHT22;33199;47.590;8.300;2023-06-10T05:54:25;23.80;54.80
30594;DHT22;33199;47.590;8.300;2023-06-10T05:56:51;23.80;55.00
30594;DHT22;33199;47.590;8.300;2023-06-10T05:59:17;23.80;55.00
30594;DHT22;33199;47.590;8.300;2023-06-10T06:01:42;23.70;54.90
30594;DHT22;33199;47.590;8.300;2023-06-10T06:04:07;23.80;55.00
30594;DHT22;33199;47.590;8.300;2023-06-10T06:06:34;23.80;55.00
30594;DHT22;33199;47.590;8.300;2023-06-10T06:09:00;23.80;55.00
30594;DHT22;33199;47.590;8.300;2023-06-10T06:11:25;23.80;55.00
30594;DHT22;33199;47.590;8.300;2023-06-10T06:13:51;23.70;55.00
30594;DHT22;33199;47.590;8.300;2023-06-10T06:16:17;23.70;54.90
30594;DHT22;33199;47.590;8.300;2023-06-10T06:18:43;23.70;55.50
30594;DHT22;33199;47.590;8.300;2023-06-10T06:21:09;23.70;55.00
30594;DHT22;33199;47.590;8.300;2023-06-10T06:23:34;23.70;55.00
30594;DHT22;33199;47.590;8.300;2023-06-10T06:26:00;23.70;54.90
30594;DHT22;33199;47.590;8.300;2023-06-10T06:28:26;23.70;55.00
30594;DHT22;33199;47.590;8.300;2023-06-10T06:30:57;23.70;55.00
30594;DHT22;33199;47.590;8.300;2023-06-10T06:33:22;23.70;54.90
30594;DHT22;33199;47.590;8.300;2023-06-10T06:35:48;23.60;54.90
30594;DHT22;33199;47.590;8.300;2023-06-10T06:38:14;23.70;55.00
30594;DHT22;33199;47.590;8.300;2023-06-10T06:40:39;23.70;55.00
30594;DHT22;33199;47.590;8.300;2023-06-10T06:43:05;23.70;55.60
30594;DHT22;33199;47.590;8.300;2023-06-10T06:45:30;23.70;54.90
30594;DHT22;33199;47.590;8.300;2023-06-10T06:47:56;23.60;55.00
30594;DHT22;33199;47.590;8.300;2023-06-10T06:50:22;23.60;54.90
30594;DHT22;33199;47.590;8.300;2023-06-10T06:52:47;23.60;54.90
30594;DHT22;33199;47.590;8.300;2023-06-10T06:55:13;23.60;54.90
30594;DHT22;33199;47.590;8.300;2023-06-10T06:57:38;23.60;54.90
30594;DHT22;33199;47.590;8.300;2023-06-10T07:00:04;23.60;54.90
30594;DHT22;33199;47.590;8.300;2023-06-10T07:02:30;23.60;55.00
30594;DHT22;33199;47.590;8.300;2023-06-10T07:04:57;23.60;55.00
30594;DHT22;33199;47.590;8.300;2023-06-10T07:07:24;23.60;54.90
30594;DHT22;33199;47.590;8.300;2023-06-10T07:09:49;23.60;54.90
30594;DHT22;33199;47.590;8.300;2023-06-10T07:12:15;23.50;54.90
30594;DHT22;33199;47.590;8.300;2023-06-10T07:14:40;23.60;55.00
30594;DHT22;33199;47.590;8.300;2023-06-10T07:17:06;23.50;55.00
30594;DHT22;33199;47.590;8.300;2023-06-10T07:19:31;23.50;54.90
30594;DHT22;33199;47.590;8.300;2023-06-10T07:21:57;23.50;54.90
30594;DHT22;33199;47.590;8.300;2023-06-10T07:24:22;23.50;55.50
30594;DHT22;33199;47.590;8.300;2023-06-10T07:26:48;23.50;54.90
30594;DHT22;33199;47.590;8.300;2023-06-10T07:29:13;23.50;54.90
30594;DHT22;33199;47.590;8.300;2023-06-10T07:31:40;23.50;54.90
30594;DHT22;33199;47.590;8.300;2023-06-10T07:34:05;23.50;55.00
30594;DHT22;33199;47.590;8.300;2023-06-10T07:36:31;23.50;55.00
30594;DHT22;33199;47.590;8.300;2023-06-10T07:38:56;23.50;55.00
30594;DHT22;33199;47.590;8.300;2023-06-10T07:41:23;23.50;54.90
30594;DHT22;33199;47.590;8.300;2023-06-10T07:43:50;23.50;54.90
30594;DHT22;33199;47.590;8.300;2023-06-10T07:46:22;23.50;55.00
30594;DHT22;33199;47.590;8.300;2023-06-10T07:48:48;23.50;54.90
30594;DHT22;33199;47.590;8.300;2023-06-10T07:51:14;23.50;55.00
30594;DHT22;33199;47.590;8.300;2023-06-10T07:53:40;23.50;54.80
30594;DHT22;33199;47.590;8.300;2023-06-10T07:56:06;23.50;54.90
30594;DHT22;33199;47.590;8.300;2023-06-10T07:58:31;23.50;55.00
30594;DHT22;33199;47.590;8.300;2023-06-10T08:00:56;23.50;54.90
30594;DHT22;33199;47.590;8.300;2023-06-10T08:03:22;23.40;54.90
30594;DHT22;33199;47.590;8.300;2023-06-10T08:05:47;23.40;54.90
30594;DHT22;33199;47.590;8.300;2023-06-10T08:08:13;23.40;54.80
30594;DHT22;33199;47.590;8.300;2023-06-10T08:10:38;23.40;54.90
30594;DHT22;33199;47.590;8.300;2023-06-10T08:13:04;23.40;54.80
30594;DHT22;33199;47.590;8.300;2023-06-10T08:15:29;23.40;54.80
30594;DHT22;33199;47.590;8.300;2023-06-10T08:17:55;23.40;54.80
30594;DHT22;33199;47.590;8.300;2023-06-10T08:20:21;23.40;54.80
30594;DHT22;33199;47.590;8.300;2023-06-10T08:22:47;23.40;54.90
30594;DHT22;33199;47.590;8.300;2023-06-10T08:25:12;23.40;54.80
30594;DHT22;33199;47.590;8.300;2023-06-10T08:27:38;23.40;54.80
30594;DHT22;33199;47.590;8.300;2023-06-10T08:30:04;23.40;54.80
30594;DHT22;33199;47.590;8.300;2023-06-10T08:32:29;23.40;54.90
30594;DHT22;33199;47.590;8.300;2023-06-10T08:34:55;23.40;54.80
30594;DHT22;33199;47.590;8.300;2023-06-10T08:37:20;23.40;54.80
30594;DHT22;33199;47.590;8.300;2023-06-10T08:39:47;23.40;54.90
30594;DHT22;33199;47.590;8.300;2023-06-10T08:42:17;23.40;54.90
30594;DHT22;33199;47.590;8.300;2023-06-10T08:44:45;23.40;54.90
30594;DHT22;33199;47.590;8.300;2023-06-10T08:47:15;23.40;54.90
30594;DHT22;33199;47.590;8.300;2023-06-10T08:49:42;23.40;54.90
30594;DHT22;33199;47.590;8.300;2023-06-10T08:52:08;23.40;54.80
30594;DHT22;33199;47.590;8.300;2023-06-10T08:54:36;23.40;54.80
30594;DHT22;33199;47.590;8.300;2023-06-10T08:57:04;23.40;54.80
30594;DHT22;33199;47.590;8.300;2023-06-10T08:59:31;23.40;55.10
30594;DHT22;33199;47.590;8.300;2023-06-10T09:01:56;23.40;54.80
30594;DHT22;33199;47.590;8.300;2023-06-10T09:04:23;23.40;54.90
30594;DHT22;33199;47.590;8.300;2023-06-10T09:06:49;23.40;54.90
30594;DHT22;33199;47.590;8.300;2023-06-10T09:09:14;23.40;54.90
30594;DHT22;33199;47.590;8.300;2023-06-10T09:11:43;23.40;54.90
30594;DHT22;33199;47.590;8.300;2023-06-10T09:14:08;23.40;54.80
30594;DHT22;33199;47.590;8.300;2023-06-10T09:16:34;23.40;54.80
30594;DHT22;33199;47.590;8.300;2023-06-10T09:18:59;23.40;54.90
30594;DHT22;33199;47.590;8.300;2023-06-10T09:21:25;23.40;54.10
30594;DHT22;33199;47.590;8.300;2023-06-10T09:23:51;23.40;52.20
30594;DHT22;33199;47.590;8.300;2023-06-10T09:26:17;23.50;51.60
30594;DHT22;33199;47.590;8.300;2023-06-10T09:28:43;23.50;52.30
30594;DHT22;33199;47.590;8.300;2023-06-10T09:31:09;23.50;52.10
30594;DHT22;33199;47.590;8.300;2023-06-10T09:33:38;23.50;52.40
30594;DHT22;33199;47.590;8.300;2023-06-10T09:36:04;23.40;52.60
30594;DHT22;33199;47.590;8.300;2023-06-10T09:38:31;23.40;52.70
30594;DHT22;33199;47.590;8.300;2023-06-10T09:40:57;23.40;52.90
30594;DHT22;33199;47.590;8.300;2023-06-10T09:43:22;23.40;53.00
30594;DHT22;33199;47.590;8.300;2023-06-10T09:45:48;23.40;53.20
30594;DHT22;33199;47.590;8.300;2023-06-10T09:48:14;23.40;53.30
30594;DHT22;33199;47.590;8.300;2023-06-10T09:50:43;23.30;53.40
30594;DHT22;33199;47.590;8.300;2023-06-10T09:53:11;23.40;53.50
30594;DHT22;33199;47.590;8.300;2023-06-10T09:55:38;23.40;53.60
30594;DHT22;33199;47.590;8.300;2023-06-10T09:58:04;23.40;53.60
30594;DHT22;33199;47.590;8.300;2023-06-10T10:00:31;23.30;53.60
30594;DHT22;33199;47.590;8.300;2023-06-10T10:02:57;23.30;53.60
30594;DHT22;33199;47.590;8.300;2023-06-10T10:05:22;23.30;53.70
30594;DHT22;33199;47.590;8.300;2023-06-10T10:07:48;23.30;53.80
30594;DHT22;33199;47.590;8.300;2023-06-10T10:10:14;23.30;53.80
30594;DHT22;33199;47.590;8.300;2023-06-10T10:12:40;23.30;53.80
30594;DHT22;33199;47.590;8.300;2023-06-10T10:15:07;23.30;53.90
30594;DHT22;33199;47.590;8.300;2023-06-10T10:17:40;23.30;54.20
30594;DHT22;33199;47.590;8.300;2023-06-10T10:20:05;23.30;53.90
30594;DHT22;33199;47.590;8.300;2023-06-10T10:22:37;23.30;54.00
30594;DHT22;33199;47.590;8.300;2023-06-10T10:25:06;23.30;54.00
30594;DHT22;33199;47.590;8.300;2023-06-10T10:27:35;23.30;54.10
30594;DHT22;33199;47.590;8.300;2023-06-10T10:30:01;23.30;54.10
30594;DHT22;33199;47.590;8.300;2023-06-10T10:32:39;23.30;54.10
30594;DHT22;33199;47.590;8.300;2023-06-10T10:35:08;23.30;54.20
30594;DHT22;33199;47.590;8.300;2023-06-10T10:37:35;23.30;54.20
30594;DHT22;33199;47.590;8.300;2023-06-10T10:40:01;23.30;54.20
30594;DHT22;33199;47.590;8.300;2023-06-10T10:42:28;23.30;54.30
30594;DHT22;33199;47.590;8.300;2023-06-10T10:44:54;23.30;54.30
30594;DHT22;33199;47.590;8.300;2023-06-10T10:47:22;23.30;54.40
30594;DHT22;33199;47.590;8.300;2023-06-10T10:49:52;23.30;54.30
30594;DHT22;33199;47.590;8.300;2023-06-10T10:52:18;23.40;54.40
30594;DHT22;33199;47.590;8.300;2023-06-10T10:54:45;23.30;54.40
30594;DHT22;33199;47.590;8.300;2023-06-10T10:57:16;23.30;54.30
30594;DHT22;33199;47.590;8.300;2023-06-10T11:02:10;23.40;54.40
30594;DHT22;33199;47.590;8.300;2023-06-10T11:04:36;23.30;54.40
30594;DHT22;33199;47.590;8.300;2023-06-10T11:07:07;23.40;54.50
30594;DHT22;33199;47.590;8.300;2023-06-10T11:09:33;23.40;54.50
30594;DHT22;33199;47.590;8.300;2023-06-10T11:11:59;23.40;54.50
30594;DHT22;33199;47.590;8.300;2023-06-10T11:14:27;23.40;54.50
30594;DHT22;33199;47.590;8.300;2023-06-10T11:16:58;23.40;54.50
30594;DHT22;33199;47.590;8.300;2023-06-10T11:19:37;23.40;54.50
30594;DHT22;33199;47.590;8.300;2023-06-10T11:22:07;23.40;54.60
30594;DHT22;33199;47.590;8.300;2023-06-10T11:24:32;23.40;54.60
30594;DHT22;33199;47.590;8.300;2023-06-10T11:32:44;23.40;54.70
30594;DHT22;33199;47.590;8.300;2023-06-10T11:35:10;23.40;54.70
30594;DHT22;33199;47.590;8.300;2023-06-10T11:37:36;23.40;54.70
30594;DHT22;33199;47.590;8.300;2023-06-10T11:40:02;23.40;54.60
30594;DHT22;33199;47.590;8.300;2023-06-10T11:42:28;23.40;54.60
30594;DHT22;33199;47.590;8.300;2023-06-10T11:44:54;23.40;54.60
30594;DHT22;33199;47.590;8.300;2023-06-10T11:47:19;23.40;54.70
30594;DHT22;33199;47.590;8.300;2023-06-10T11:49:45;23.40;54.70
30594;DHT22;33199;47.590;8.300;2023-06-10T11:52:13;23.40;54.70
30594;DHT22;33199;47.590;8.300;2023-06-10T11:54:39;23.40;54.80
30594;DHT22;33199;47.590;8.300;2023-06-10T11:57:04;23.40;54.80
30594;DHT22;33199;47.590;8.300;2023-06-10T11:59:30;23.50;54.80
30594;DHT22;33199;47.590;8.300;2023-06-10T12:02:05;23.40;54.80
30594;DHT22;33199;47.590;8.300;2023-06-10T12:04:30;23.40;54.80
30594;DHT22;33199;47.590;8.300;2023-06-10T12:06:57;23.40;54.80
30594;DHT22;33199;47.590;8.300;2023-06-10T12:09:27;23.50;54.90
30594;DHT22;33199;47.590;8.300;2023-06-10T12:12:03;23.50;54.90
30594;DHT22;33199;47.590;8.300;2023-06-10T12:17:13;23.40;54.90
30594;DHT22;33199;47.590;8.300;2023-06-10T12:19:39;23.50;54.90
30594;DHT22;33199;47.590;8.300;2023-06-10T12:22:05;23.50;55.00
30594;DHT22;33199;47.590;8.300;2023-06-10T12:24:30;23.50;55.00
30594;DHT22;33199;47.590;8.300;2023-06-10T12:26:56;23.50;55.00
30594;DHT22;33199;47.590;8.300;2023-06-10T12:29:22;23.50;55.00
30594;DHT22;33199;47.590;8.300;2023-06-10T12:34:18;23.50;55.10
30594;DHT22;33199;47.590;8.300;2023-06-10T12:36:48;23.50;55.10
30594;DHT22;33199;47.590;8.300;2023-06-10T12:39:13;23.50;55.10
30594;DHT22;33199;47.590;8.300;2023-06-10T12:41:38;23.50;55.10
30594;DHT22;33199;47.590;8.300;2023-06-10T12:44:04;23.50;55.10
30594;DHT22;33199;47.590;8.300;2023-06-10T12:46:39;23.50;55.10
30594;DHT22;33199;47.590;8.300;2023-06-10T12:49:04;23.50;55.10
30594;DHT22;33199;47.590;8.300;2023-06-10T12:51:30;23.50;55.10
30594;DHT22;33199;47.590;8.300;2023-06-10T12:53:55;23.60;55.00
30594;DHT22;33199;47.590;8.300;2023-06-10T12:56:21;23.50;55.00
30594;DHT22;33199;47.590;8.300;2023-06-10T12:58:47;23.50;55.00
30594;DHT22;33199;47.590;8.300;2023-06-10T13:01:13;23.60;55.10
30594;DHT22;33199;47.590;8.300;2023-06-10T13:03:38;23.60;55.00
30594;DHT22;33199;47.590;8.300;2023-06-10T13:06:05;23.60;55.00
30594;DHT22;33199;47.590;8.300;2023-06-10T13:08:31;23.60;55.00
30594;DHT22;33199;47.590;8.300;2023-06-10T13:10:57;23.60;54.90
30594;DHT22;33199;47.590;8.300;2023-06-10T13:13:23;23.60;55.00
30594;DHT22;33199;47.590;8.300;2023-06-10T13:15:48;23.60;55.00
30594;DHT22;33199;47.590;8.300;2023-06-10T13:18:15;23.60;55.00
30594;DHT22;33199;47.590;8.300;2023-06-10T13:20:40;23.60;55.00
30594;DHT22;33199;47.590;8.300;2023-06-10T13:23:06;23.70;55.00
30594;DHT22;33199;47.590;8.300;2023-06-10T13:25:32;23.60;54.90
30594;DHT22;33199;47.590;8.300;2023-06-10T13:27:57;23.70;55.00
30594;DHT22;33199;47.590;8.300;2023-06-10T13:30:23;23.60;55.00
30594;DHT22;33199;47.590;8.300;2023-06-10T13:32:48;23.60;55.10
30594;DHT22;33199;47.590;8.300;2023-06-10T13:35:14;23.60;55.10
30594;DHT22;33199;47.590;8.300;2023-06-10T13:37:39;23.60;55.00
30594;DHT22;33199;47.590;8.300;2023-06-10T13:40:05;23.70;55.00
30594;DHT22;33199;47.590;8.300;2023-06-10T13:42:31;23.70;55.00
30594;DHT22;33199;47.590;8.300;2023-06-10T13:44:56;23.70;55.00
30594;DHT22;33199;47.590;8.300;2023-06-10T13:47:22;23.70;55.00
30594;DHT22;33199;47.590;8.300;2023-06-10T13:49:47;23.70;55.00
30594;DHT22;33199;47.590;8.300;2023-06-10T13:52:13;23.70;55.00
30594;DHT22;33199;47.590;8.300;2023-06-10T13:54:38;23.70;55.00
30594;DHT22;33199;47.590;8.300;2023-06-10T13:57:04;23.70;55.00
30594;DHT22;33199;47.590;8.300;2023-06-10T13:59:29;23.70;55.00
30594;DHT22;33199;47.590;8.300;2023-06-10T14:01:55;23.70;55.00
30594;DHT22;33199;47.590;8.300;2023-06-10T14:04:21;23.80;55.10
30594;DHT22;33199;47.590;8.300;2023-06-10T14:06:47;23.80;55.10
30594;DHT22;33199;47.590;8.300;2023-06-10T14:09:13;23.80;55.10
30594;DHT22;33199;47.590;8.300;2023-06-10T14:11:38;23.80;55.00
30594;DHT22;33199;47.590;8.300;2023-06-10T14:14:04;23.80;55.00
30594;DHT22;33199;47.590;8.300;2023-06-10T14:16:29;23.80;55.00
30594;DHT22;33199;47.590;8.300;2023-06-10T14:18:55;23.80;55.00
30594;DHT22;33199;47.590;8.300;2023-06-10T14:21:20;23.80;55.00
30594;DHT22;33199;47.590;8.300;2023-06-10T14:23:46;23.80;55.00
30594;DHT22;33199;47.590;8.300;2023-06-10T14:26:12;23.80;55.00
30594;DHT22;33199;47.590;8.300;2023-06-10T14:28:37;23.80;55.00
30594;DHT22;33199;47.590;8.300;2023-06-10T14:31:03;23.80;55.00
30594;DHT22;33199;47.590;8.300;2023-06-10T14:33:28;23.80;55.10
30594;DHT22;33199;47.590;8.300;2023-06-10T14:35:54;23.80;55.10
30594;DHT22;33199;47.590;8.300;2023-06-10T14:38:20;23.80;55.10
30594;DHT22;33199;47.590;8.300;2023-06-10T14:40:45;23.80;55.10
30594;DHT22;33199;47.590;8.300;2023-06-10T14:43:11;23.90;55.00
30594;DHT22;33199;47.590;8.300;2023-06-10T14:45:36;23.90;55.10
30594;DHT22;33199;47.590;8.300;2023-06-10T14:48:03;23.90;55.00
30594;DHT22;33199;47.590;8.300;2023-06-10T14:50:28;23.90;55.20
30594;DHT22;33199;47.590;8.300;2023-06-10T14:52:54;23.90;55.10
30594;DHT22;33199;47.590;8.300;2023-06-10T14:55:19;23.90;55.10
30594;DHT22;33199;47.590;8.300;2023-06-10T14:57:45;23.90;55.10
30594;DHT22;33199;47.590;8.300;2023-06-10T15:00:11;23.90;55.00
30594;DHT22;33199;47.590;8.300;2023-06-10T15:02:37;23.90;55.20
30594;DHT22;33199;47.590;8.300;2023-06-10T15:05:02;23.90;55.20
30594;DHT22;33199;47.590;8.300;2023-06-10T15:07:28;23.90;55.30
30594;DHT22;33199;47.590;8.300;2023-06-10T15:09:54;23.90;55.20
30594;DHT22;33199;47.590;8.300;2023-06-10T15:12:19;23.90;55.30
30594;DHT22;33199;47.590;8.300;2023-06-10T15:14:45;23.90;55.20
30594;DHT22;33199;47.590;8.300;2023-06-10T15:17:10;23.90;55.30
30594;DHT22;33199;47.590;8.300;2023-06-10T15:19:36;23.90;55.40
30594;DHT22;33199;47.590;8.300;2023-06-10T15:22:01;23.90;55.40
30594;DHT22;33199;47.590;8.300;2023-06-10T15:24:27;23.90;55.40
30594;DHT22;33199;47.590;8.300;2023-06-10T15:26:52;23.90;55.40
30594;DHT22;33199;47.590;8.300;2023-06-10T15:29:18;23.90;55.40
30594;DHT22;33199;47.590;8.300;2023-06-10T15:31:43;23.90;55.40
30594;DHT22;33199;47.590;8.300;2023-06-10T15:34:09;24.00;55.40
30594;DHT22;33199;47.590;8.300;2023-06-10T15:36:34;24.00;55.40
30594;DHT22;33199;47.590;8.300;2023-06-10T15:39:02;24.00;55.40
30594;DHT22;33199;47.590;8.300;2023-06-10T15:41:28;24.00;55.50